100LL.CA
Aviation Fuel Pricing for Canadians
Please upgrade your browser - Tested with IE9, FireFox, Chrome, Safari

Fuel Airports Other Help
Prices Economy Info List METAR/TAF Kneeboard Help

Enter a list of
Airport Idents:
Sort Method: As Entered    By Ident   

CYVR
METAR CYVR 251500Z 32003KT 30SM FEW190 FEW210 BKN230 OVC250 06/04 A3002 RMK AC1CS1CS4CS2 SLP166
TAF CYVR 251438Z 2515/2618 04005KT P6SM FEW080 SCT160 BKN220 FM251900 27008KT P6SM SCT080 OVC160 FM260000 25005KT P6SM VCSH SCT050 OVC080 FM260200 VRB03KT P6SM -SHRA SCT020 OVC050 FM260800 23010KT P6SM SCT040 BKN080 BECMG 2610/2612 13010KT FM261300 12010KT P6SM -SHRA BKN040 RMK NXT FCST BY 251800Z
CYXX
METAR CYXX 251500Z 01003KT 30SM FEW150 BKN210 07/05 A3002 RMK AC1CI5 SLP167
TAF CYXX 251138Z 2512/2612 VRB03KT P6SM BKN240 FM251800 04010KT P6SM SCT100 OVC160 FM252300 04010KT P6SM VCSH FEW050 OVC080 FM260200 VRB03KT P6SM -SHRA OVC040 BECMG 2606/2608 19008KT RMK NXT FCST BY 251800Z
KBLI
METAR KBLI 251453Z 00000KT 8SM CLR 06/04 A3000 RMK AO2 SLP167 T00560039 56021
TAF KBLI 251130Z 2512/2612 VRB03KT 6SM BR FEW100 SCT200 TEMPO 2512/2514 2SM BR FM251800 02008KT P6SM BKN120 OVC200 FM260100 16009KT P6SM BKN070 OVC100 FM260300 16010G15KT 6SM -RA BKN040 OVC060 FM260900 16008KT P6SM VCSH SCT030 OVC040


Please Send Updates!

Desktop Version ]  [ Mobile Version ]  [ Disclaimer ]